Time;durP1;ratioP1;P1;durP2;ratioP2;P2;SDS_P1;SDS_P2;PMS_P1;PMS_P2;Temp;Humidity;BMP_temperature;BMP_pressure;BME280_temperature;BME280_humidity;BME280_pressure;Samples;Min_cycle;Max_cycle;Signal;HPM_P1;HPM_P2
2023/04/02 00:01:00;;;;;;;5.47;4.97;;;12.20;99.90;;;;;;5031765;28;20653;-76
2023/04/02 00:03:52;;;;;;;4.82;4.43;;;12.10;99.90;;;;;;5030969;28;20166;-76
2023/04/02 00:06:33;;;;;;;6.18;5.30;;;12.10;99.90;;;;;;5010713;28;20725;-75
2023/04/02 00:09:20;;;;;;;5.10;4.60;;;12.10;99.90;;;;;;5023718;28;20269;-75
2023/04/02 00:11:49;;;;;;;4.82;4.30;;;12.20;99.90;;;;;;5013086;28;20248;-75
2023/04/02 00:14:32;;;;;;;4.85;4.45;;;12.20;99.90;;;;;;5023443;28;20231;-75
2023/04/02 00:17:00;;;;;;;4.88;4.43;;;12.10;99.90;;;;;;5023129;28;20183;-75
2023/04/02 00:19:32;;;;;;;4.40;4.00;;;12.20;99.90;;;;;;5004235;28;20205;-75
2023/04/02 00:22:00;;;;;;;5.85;4.57;;;12.20;99.90;;;;;;5021931;28;20554;-75
2023/04/02 00:24:26;;;;;;;4.93;4.43;;;12.10;99.90;;;;;;4994023;28;20187;-75
2023/04/02 00:26:53;;;;;;;5.13;4.63;;;12.20;99.90;;;;;;5010713;28;20175;-75
2023/04/02 00:29:18;;;;;;;6.38;5.65;;;12.20;99.90;;;;;;5014322;28;20243;-75
2023/04/02 00:31:48;;;;;;;7.27;6.30;;;12.20;99.90;;;;;;5009981;28;20684;-76
2023/04/02 00:34:35;;;;;;;5.78;5.18;;;12.20;99.90;;;;;;5011614;28;20962;-75
2023/04/02 00:37:02;;;;;;;7.30;5.93;;;12.20;99.90;;;;;;4994099;28;20206;-76
2023/04/02 00:39:31;;;;;;;5.80;5.25;;;12.10;99.90;;;;;;4993650;28;20204;-76
2023/04/02 00:42:04;;;;;;;6.50;5.55;;;12.20;99.90;;;;;;4993827;28;20216;-76
2023/04/02 00:44:42;;;;;;;5.47;4.80;;;12.20;99.90;;;;;;5009871;28;20233;-76
2023/04/02 00:47:23;;;;;;;5.57;5.07;;;12.20;99.90;;;;;;5010565;28;20174;-75
2023/04/02 00:50:04;;;;;;;3.05;2.75;;;12.20;99.90;;;;;;5009926;28;20185;-75
2023/04/02 00:52:32;;;;;;;2.47;2.28;;;12.10;99.90;;;;;;5009691;28;20174;-75
2023/04/02 00:55:09;;;;;;;2.97;1.90;;;12.10;99.90;;;;;;5009973;28;20299;-75
2023/04/02 00:57:35;;;;;;;1.70;1.00;;;12.00;99.90;;;;;;5011200;28;20682;-75
2023/04/02 01:00:26;;;;;;;1.50;0.90;;;11.90;99.90;;;;;;5009792;28;20206;-75
2023/04/02 01:03:16;;;;;;;1.40;0.90;;;11.80;99.90;;;;;;5008873;28;20240;-75
2023/04/02 01:06:17;;;;;;;1.40;0.93;;;11.80;99.90;;;;;;5009042;28;20899;-75
2023/04/02 01:09:15;;;;;;;1.70;1.15;;;11.60;99.90;;;;;;4991328;28;20186;-75
2023/04/02 01:11:46;;;;;;;1.92;1.00;;;11.50;99.90;;;;;;4998983;28;20185;-75
2023/04/02 01:14:33;;;;;;;2.22;1.60;;;11.50;99.90;;;;;;4996147;28;20202;-75
2023/04/02 01:17:31;;;;;;;1.88;1.20;;;11.40;99.90;;;;;;4984663;28;20181;-76
2023/04/02 01:20:10;;;;;;;1.60;1.10;;;11.30;99.90;;;;;;5009322;28;20301;-75
2023/04/02 01:23:01;;;;;;;2.20;1.65;;;11.20;99.90;;;;;;5009080;28;20178;-75
2023/04/02 01:25:52;;;;;;;2.33;1.90;;;11.10;99.90;;;;;;4977320;28;20658;-76
2023/04/02 01:28:21;;;;;;;2.20;1.73;;;11.10;99.90;;;;;;5009412;28;20654;-75
2023/04/02 01:30:51;;;;;;;2.30;1.75;;;11.10;99.90;;;;;;4993240;28;20232;-75
2023/04/02 01:33:21;;;;;;;1.95;1.75;;;11.00;99.90;;;;;;5009548;28;20587;-75
2023/04/02 01:35:52;;;;;;;2.50;2.20;;;10.90;99.90;;;;;;5009856;28;20202;-76
2023/04/02 01:38:26;;;;;;;2.05;1.67;;;10.90;99.90;;;;;;5025834;28;20256;-76
2023/04/02 01:41:15;;;;;;;2.45;2.15;;;10.90;99.90;;;;;;5009577;28;20596;-76
2023/04/02 01:43:50;;;;;;;2.00;1.40;;;10.80;99.90;;;;;;5012325;28;20182;-76
2023/04/02 01:46:30;;;;;;;3.03;1.95;;;10.80;99.90;;;;;;4993205;28;20189;-75
2023/04/02 01:49:00;;;;;;;2.58;1.30;;;10.70;99.90;;;;;;4992927;28;20837;-72
2023/04/02 01:51:30;;;;;;;1.77;1.45;;;10.70;99.90;;;;;;5025311;28;20236;-72
2023/04/02 01:54:00;;;;;;;3.85;3.45;;;10.60;99.90;;;;;;4993087;28;20198;-72
2023/04/02 01:56:29;;;;;;;2.60;1.35;;;10.60;99.90;;;;;;5010509;28;20600;-72
2023/04/02 01:58:59;;;;;;;1.75;1.40;;;10.60;99.90;;;;;;5009463;28;20708;-72
2023/04/02 02:01:34;;;;;;;2.17;1.48;;;10.60;99.90;;;;;;5024952;28;20182;-72
2023/04/02 02:04:01;;;;;;;1.83;1.20;;;10.50;99.90;;;;;;5009211;28;20210;-72
2023/04/02 02:06:27;;;;;;;1.95;1.73;;;10.50;99.90;;;;;;4992654;28;20192;-72
2023/04/02 02:09:03;;;;;;;1.77;1.33;;;10.50;99.90;;;;;;5025711;28;20182;-72
2023/04/02 02:11:31;;;;;;;3.10;1.25;;;10.50;99.90;;;;;;5011185;28;20178;-72
2023/04/02 02:14:00;;;;;;;2.58;1.65;;;10.50;99.90;;;;;;5014051;28;20178;-72
2023/04/02 02:16:28;;;;;;;2.17;1.15;;;10.40;99.90;;;;;;5012509;28;20190;-72
2023/04/02 02:18:59;;;;;;;2.55;1.50;;;10.40;99.90;;;;;;5013982;28;20197;-73
2023/04/02 02:21:47;;;;;;;2.10;1.35;;;10.40;99.90;;;;;;5018756;28;20177;-72
2023/04/02 02:24:27;;;;;;;2.10;1.50;;;10.40;99.90;;;;;;4997293;28;20726;-73
2023/04/02 02:27:24;;;;;;;1.60;1.10;;;10.40;99.90;;;;;;5013491;28;20214;-72
2023/04/02 02:30:14;;;;;;;2.75;1.40;;;10.40;99.90;;;;;;4995963;28;20192;-72
2023/04/02 02:32:53;;;;;;;3.20;1.23;;;10.40;99.90;;;;;;4995600;28;20170;-72
2023/04/02 02:36:05;;;;;;;1.77;1.30;;;10.40;99.90;;;;;;5012515;28;20530;-72
2023/04/02 02:38:35;;;;;;;2.22;1.42;;;10.40;99.90;;;;;;5010416;28;20593;-72
2023/04/02 02:41:20;;;;;;;1.63;1.10;;;10.40;99.90;;;;;;4995767;28;20175;-72
2023/04/02 02:43:58;;;;;;;2.05;1.40;;;10.30;99.90;;;;;;5011787;28;20170;-72
2023/04/02 02:46:25;;;;;;;2.03;1.55;;;10.30;99.90;;;;;;5012360;28;20249;-72
2023/04/02 02:48:55;;;;;;;2.30;1.27;;;10.30;99.90;;;;;;5011955;28;20170;-71
2023/04/02 02:51:28;;;;;;;3.50;1.45;;;10.20;99.90;;;;;;5012631;28;20189;-72
2023/04/02 02:54:01;;;;;;;1.70;1.20;;;10.20;99.90;;;;;;5011715;28;20636;-72
2023/04/02 02:56:28;;;;;;;1.40;1.00;;;10.20;99.90;;;;;;5028474;28;20185;-72
2023/04/02 02:58:54;;;;;;;1.90;1.42;;;10.10;99.90;;;;;;5013113;28;20566;-72
2023/04/02 03:01:28;;;;;;;2.15;1.52;;;10.10;99.90;;;;;;4995387;28;20170;-72
2023/04/02 03:03:54;;;;;;;1.92;1.42;;;10.10;99.90;;;;;;5011984;28;20179;-72
2023/04/02 03:06:21;;;;;;;2.40;1.20;;;10.10;99.90;;;;;;4995267;28;20224;-72
2023/04/02 03:09:18;;;;;;;1.98;1.20;;;10.10;99.90;;;;;;5011901;28;20182;-72
2023/04/02 03:12:02;;;;;;;2.00;1.45;;;10.10;99.90;;;;;;5010675;28;20591;-73
2023/04/02 03:14:38;;;;;;;2.60;1.60;;;10.10;99.90;;;;;;4995300;28;20788;-73
2023/04/02 03:17:25;;;;;;;2.72;1.35;;;10.10;99.90;;;;;;5027745;28;20255;-72
2023/04/02 03:20:00;;;;;;;1.70;1.10;;;10.10;99.90;;;;;;5015726;28;20332;-72
2023/04/02 03:22:39;;;;;;;1.70;1.08;;;10.00;99.90;;;;;;4994075;28;20174;-73
2023/04/02 03:25:20;;;;;;;2.30;1.45;;;10.00;99.90;;;;;;4991707;28;20252;-72
2023/04/02 03:27:51;;;;;;;2.00;1.70;;;10.00;99.90;;;;;;4975270;28;20265;-72
2023/04/02 03:30:25;;;;;;;2.00;1.73;;;10.00;99.90;;;;;;4975462;28;20198;-72
2023/04/02 03:32:57;;;;;;;2.65;1.55;;;9.90;99.90;;;;;;4991058;28;20174;-72
2023/04/02 03:35:34;;;;;;;2.13;1.60;;;9.90;99.90;;;;;;4991611;28;20560;-72
2023/04/02 03:38:26;;;;;;;2.22;1.25;;;9.90;99.90;;;;;;5007654;28;20198;-72
2023/04/02 03:41:20;;;;;;;3.13;2.38;;;9.80;99.90;;;;;;4991328;28;20218;-72
2023/04/02 03:43:50;;;;;;;1.63;1.02;;;9.80;99.90;;;;;;4983847;28;20557;-73
2023/04/02 03:46:39;;;;;;;2.10;1.70;;;9.80;99.90;;;;;;4975461;28;20185;-72
2023/04/02 03:49:40;;;;;;;1.90;1.65;;;9.80;99.90;;;;;;4974995;28;20171;-73
2023/04/02 03:52:25;;;;;;;2.45;2.20;;;9.80;99.90;;;;;;4975006;28;20179;-72
2023/04/02 03:54:58;;;;;;;3.30;2.60;;;9.80;99.90;;;;;;4974750;28;20195;-73
2023/04/02 03:57:33;;;;;;;2.75;2.40;;;9.70;99.90;;;;;;4991327;28;20658;-72
2023/04/02 04:00:37;;;;;;;2.42;2.22;;;9.70;99.90;;;;;;4974760;28;20202;-73
2023/04/02 04:03:12;;;;;;;3.28;2.80;;;9.60;99.90;;;;;;4991031;28;20541;-72
2023/04/02 04:05:52;;;;;;;3.10;2.80;;;9.60;99.90;;;;;;4974836;28;20289;-72
2023/04/02 04:08:43;;;;;;;3.15;2.83;;;9.60;99.90;;;;;;4991350;28;20284;-72
2023/04/02 04:11:14;;;;;;;3.33;3.03;;;9.60;99.90;;;;;;4990079;28;20176;-72
2023/04/02 04:13:52;;;;;;;2.85;2.60;;;9.60;99.90;;;;;;5008949;28;20534;-72
2023/04/02 04:16:25;;;;;;;3.10;2.80;;;9.60;99.90;;;;;;5005521;28;20162;-72
2023/04/02 04:19:06;;;;;;;3.10;2.53;;;9.60;99.90;;;;;;5030451;28;20208;-72
2023/04/02 04:21:36;;;;;;;2.85;2.65;;;9.50;99.90;;;;;;4997215;28;20197;-71
2023/04/02 04:24:24;;;;;;;2.80;2.40;;;9.50;99.90;;;;;;4996381;28;20198;-72
2023/04/02 04:27:32;;;;;;;3.08;2.78;;;9.50;99.90;;;;;;5010220;28;20174;-71
2023/04/02 04:30:19;;;;;;;2.55;2.33;;;9.40;99.90;;;;;;4980681;28;20196;-72
2023/04/02 04:32:56;;;;;;;2.95;2.60;;;9.50;99.90;;;;;;5009045;28;20224;-71
2023/04/02 04:35:49;;;;;;;2.70;2.50;;;9.50;99.90;;;;;;4977774;28;20525;-72
2023/04/02 04:38:31;;;;;;;2.25;2.05;;;9.50;99.90;;;;;;5009849;28;20265;-71
2023/04/02 04:41:10;;;;;;;2.35;2.15;;;9.40;99.90;;;;;;5010138;28;20521;-72
2023/04/02 04:43:50;;;;;;;3.25;2.95;;;9.40;99.90;;;;;;5010055;28;20177;-71
2023/04/02 04:46:36;;;;;;;3.03;2.67;;;9.40;99.90;;;;;;5010371;28;20177;-72
2023/04/02 04:49:16;;;;;;;2.80;2.60;;;9.40;99.90;;;;;;5009325;28;20182;-72
2023/04/02 04:51:56;;;;;;;3.20;2.90;;;9.30;99.90;;;;;;4993070;28;20182;-71
2023/04/02 04:54:26;;;;;;;2.83;2.58;;;9.30;99.90;;;;;;5009568;28;20606;-72
2023/04/02 04:57:01;;;;;;;3.58;3.28;;;9.20;99.90;;;;;;5010013;28;20206;-72
2023/04/02 04:59:34;;;;;;;2.08;1.88;;;9.20;99.90;;;;;;5009568;28;20198;-72
2023/04/02 05:02:21;;;;;;;3.20;2.17;;;9.20;99.90;;;;;;4993363;28;20178;-72
2023/04/02 05:04:50;;;;;;;2.90;2.60;;;9.20;99.90;;;;;;4993081;28;20210;-72
2023/04/02 05:07:43;;;;;;;2.85;2.30;;;9.20;99.90;;;;;;4977511;28;20174;-72
2023/04/02 05:10:23;;;;;;;2.83;2.63;;;9.10;99.90;;;;;;5000805;28;20181;-72
2023/04/02 05:12:58;;;;;;;3.45;3.15;;;9.10;99.90;;;;;;5008250;28;20649;-72
2023/04/02 05:15:35;;;;;;;4.65;2.70;;;9.00;99.90;;;;;;5012551;28;20211;-72
2023/04/02 05:18:27;;;;;;;2.78;2.58;;;9.00;99.90;;;;;;5029545;28;20189;-72
2023/04/02 05:21:15;;;;;;;2.95;2.65;;;9.00;99.90;;;;;;5002482;28;20254;-72
2023/04/02 05:23:51;;;;;;;2.40;2.20;;;9.00;99.90;;;;;;5011177;28;20229;-72
2023/04/02 05:26:28;;;;;;;2.83;2.53;;;9.00;99.90;;;;;;4993155;28;20166;-72
2023/04/02 05:29:17;;;;;;;2.60;2.40;;;9.00;99.90;;;;;;5011027;28;20185;-73
2023/04/02 05:31:48;;;;;;;2.53;2.30;;;9.00;99.90;;;;;;5009116;28;20269;-72
2023/04/02 05:34:27;;;;;;;2.80;2.38;;;9.10;99.90;;;;;;5009678;28;20233;-73
2023/04/02 05:36:54;;;;;;;4.60;3.70;;;9.00;99.90;;;;;;5009313;28;20545;-72
2023/04/02 05:39:25;;;;;;;3.03;2.50;;;9.00;99.90;;;;;;5009702;28;20210;-72
2023/04/02 05:42:04;;;;;;;2.47;2.15;;;9.00;99.90;;;;;;5009026;28;20175;-72
2023/04/02 05:45:06;;;;;;;3.53;3.22;;;9.00;99.90;;;;;;5011602;28;20578;-72
2023/04/02 05:47:39;;;;;;;3.35;3.05;;;9.00;99.90;;;;;;5013976;28;20171;-72
2023/04/02 05:50:07;;;;;;;4.05;3.72;;;9.00;99.90;;;;;;5013288;28;20935;-72
2023/04/02 05:52:44;;;;;;;4.38;4.00;;;9.00;99.90;;;;;;5012529;28;20178;-71
2023/04/02 05:55:11;;;;;;;3.28;2.95;;;9.00;99.90;;;;;;5014481;28;20194;-71
2023/04/02 05:57:42;;;;;;;3.67;2.58;;;9.00;99.90;;;;;;5013338;28;20331;-71
2023/04/02 06:00:19;;;;;;;4.50;3.53;;;8.90;99.90;;;;;;4996712;28;20241;-71
2023/04/02 06:03:09;;;;;;;2.80;2.45;;;8.90;99.90;;;;;;4996907;28;20261;-72
2023/04/02 06:05:41;;;;;;;2.42;2.22;;;9.00;99.90;;;;;;4977613;28;20209;-72
2023/04/02 06:08:21;;;;;;;3.17;2.88;;;9.00;99.90;;;;;;5008334;28;20185;-73
2023/04/02 06:10:54;;;;;;;4.57;2.85;;;8.90;99.90;;;;;;5015845;28;20173;-73
2023/04/02 06:13:24;;;;;;;3.15;2.85;;;9.00;99.90;;;;;;5016201;28;20174;-73
2023/04/02 06:15:50;;;;;;;4.43;3.97;;;9.00;99.90;;;;;;5032019;28;20284;-73
2023/04/02 06:18:27;;;;;;;3.50;3.20;;;9.00;99.90;;;;;;5032701;28;20185;-72
2023/04/02 06:20:53;;;;;;;4.10;3.60;;;8.90;99.90;;;;;;5021716;28;20758;-72
2023/04/02 06:23:30;;;;;;;4.35;3.42;;;9.00;99.90;;;;;;5012608;28;20198;-72
2023/04/02 06:26:19;;;;;;;3.20;2.90;;;8.90;99.90;;;;;;4995977;28;20221;-72
2023/04/02 06:28:57;;;;;;;4.00;3.53;;;9.00;99.90;;;;;;4996089;28;20179;-72
2023/04/02 06:31:33;;;;;;;4.57;4.25;;;8.90;99.90;;;;;;4995805;28;20181;-71
2023/04/02 06:34:03;;;;;;;5.47;4.85;;;9.00;99.90;;;;;;4996524;28;20224;-70
2023/04/02 06:36:32;;;;;;;3.92;3.53;;;8.90;99.90;;;;;;5013379;28;20182;-71
2023/04/02 06:39:07;;;;;;;5.07;4.03;;;9.00;99.90;;;;;;4996821;28;20210;-72
2023/04/02 06:41:34;;;;;;;5.75;5.00;;;9.00;99.90;;;;;;5012597;28;20174;-72
2023/04/02 06:44:23;;;;;;;5.18;4.68;;;9.00;99.90;;;;;;4983724;28;20252;-71
2023/04/02 06:47:28;;;;;;;5.07;4.68;;;8.90;99.90;;;;;;5013570;28;20173;-72
2023/04/02 06:50:12;;;;;;;6.72;4.75;;;8.90;99.90;;;;;;5016539;28;20202;-72
2023/04/02 06:52:54;;;;;;;6.25;4.90;;;8.90;99.90;;;;;;4996212;28;20170;-72
2023/04/02 06:55:19;;;;;;;5.63;5.13;;;8.80;99.90;;;;;;5012400;28;20288;-73
2023/04/02 06:57:48;;;;;;;6.80;5.43;;;8.80;99.90;;;;;;4979634;28;20269;-73
2023/04/02 07:00:36;;;;;;;7.55;5.78;;;8.80;99.90;;;;;;5014341;28;20202;-72
2023/04/02 07:03:19;;;;;;;5.78;5.25;;;8.70;99.90;;;;;;5012686;28;20194;-73
2023/04/02 07:05:46;;;;;;;7.20;4.80;;;8.70;99.90;;;;;;5013411;28;20190;-74
2023/04/02 07:08:12;;;;;;;5.95;5.35;;;8.70;99.90;;;;;;4996971;28;20182;-73
2023/04/02 07:10:38;;;;;;;8.23;5.32;;;8.70;99.90;;;;;;4997536;28;20170;-74
2023/04/02 07:13:04;;;;;;;4.35;3.95;;;8.70;99.90;;;;;;5013211;28;20261;-74
2023/04/02 07:15:31;;;;;;;4.45;4.05;;;8.70;99.90;;;;;;5012705;28;20241;-74
2023/04/02 07:17:58;;;;;;;5.60;4.40;;;8.70;99.90;;;;;;5012388;28;20210;-74
2023/04/02 07:20:36;;;;;;;6.35;5.35;;;8.70;99.90;;;;;;5012942;28;20213;-74
2023/04/02 07:23:05;;;;;;;5.75;4.03;;;8.70;99.90;;;;;;4995332;28;20170;-73
2023/04/02 07:25:30;;;;;;;9.40;5.20;;;8.70;99.90;;;;;;4992385;28;20621;-74
2023/04/02 07:27:56;;;;;;;4.57;4.13;;;8.70;99.90;;;;;;5013059;28;20177;-73
2023/04/02 07:30:22;;;;;;;6.57;4.65;;;8.70;99.90;;;;;;5011527;28;20277;-74
2023/04/02 07:32:48;;;;;;;5.53;5.03;;;8.70;99.90;;;;;;5012915;28;20600;-72
2023/04/02 07:35:14;;;;;;;6.37;5.10;;;8.70;99.90;;;;;;5012973;28;20694;-72
2023/04/02 07:37:40;;;;;;;4.80;3.80;;;8.70;99.90;;;;;;5011734;28;20186;-73
2023/04/02 07:40:14;;;;;;;5.43;4.90;;;8.70;99.90;;;;;;5012884;28;20206;-72
2023/04/02 07:42:40;;;;;;;4.32;3.92;;;8.70;99.90;;;;;;5011895;28;20256;-74
2023/04/02 07:45:06;;;;;;;6.40;4.80;;;8.70;99.90;;;;;;5011391;28;20210;-73
2023/04/02 07:47:32;;;;;;;5.00;3.95;;;8.70;99.90;;;;;;4992759;28;20170;-73
2023/04/02 07:49:58;;;;;;;5.27;3.47;;;8.80;99.90;;;;;;4992841;28;20179;-73
2023/04/02 07:52:23;;;;;;;5.20;4.70;;;8.80;99.90;;;;;;4992808;28;20175;-73
2023/04/02 07:54:50;;;;;;;4.80;3.90;;;8.90;99.90;;;;;;4995288;28;20340;-73
2023/04/02 07:57:15;;;;;;;6.80;4.90;;;8.90;99.90;;;;;;5007634;28;20517;-73
2023/04/02 07:59:41;;;;;;;5.00;4.07;;;8.90;99.90;;;;;;5020333;28;20287;-73
2023/04/02 08:02:18;;;;;;;5.17;4.20;;;8.90;99.90;;;;;;5011755;28;20173;-73
2023/04/02 08:04:44;;;;;;;5.15;4.03;;;8.90;99.90;;;;;;5014574;28;20773;-73
2023/04/02 08:07:10;;;;;;;6.63;4.67;;;9.00;99.90;;;;;;4992051;28;20175;-73
2023/04/02 08:09:36;;;;;;;6.33;4.20;;;9.00;99.90;;;;;;4991421;28;20574;-73
2023/04/02 08:12:01;;;;;;;5.40;4.47;;;9.00;99.90;;;;;;4974451;28;20218;-73
2023/04/02 08:14:27;;;;;;;4.67;3.83;;;8.90;99.90;;;;;;4974608;28;20190;-72
2023/04/02 08:16:54;;;;;;;5.50;3.70;;;9.00;99.90;;;;;;4990997;28;20182;-72
2023/04/02 08:19:20;;;;;;;6.95;4.60;;;9.00;99.90;;;;;;4991804;28;20232;-72
2023/04/02 08:21:49;;;;;;;6.38;5.22;;;9.00;99.90;;;;;;5007441;28;20665;-72
2023/04/02 08:24:17;;;;;;;5.78;4.63;;;9.00;99.90;;;;;;5012763;28;20214;-72
2023/04/02 08:26:45;;;;;;;5.65;4.47;;;9.00;99.90;;;;;;5010167;28;20253;-72
2023/04/02 08:29:11;;;;;;;7.38;5.00;;;9.00;99.90;;;;;;4993771;28;20182;-72
2023/04/02 08:31:37;;;;;;;4.57;3.80;;;9.00;99.90;;;;;;5009571;28;20228;-73
2023/04/02 08:34:03;;;;;;;5.85;4.13;;;9.00;99.90;;;;;;5010202;28;20581;-73
2023/04/02 08:36:33;;;;;;;7.93;5.45;;;9.10;99.90;;;;;;5009997;28;20174;-73
2023/04/02 08:38:59;;;;;;;8.13;5.55;;;9.20;99.90;;;;;;5010362;28;20657;-73
2023/04/02 08:41:26;;;;;;;5.65;4.20;;;9.20;99.90;;;;;;5010564;28;20170;-73
2023/04/02 08:43:59;;;;;;;6.10;4.35;;;9.20;99.90;;;;;;5010034;28;20270;-73
2023/04/02 08:46:43;;;;;;;7.25;4.78;;;9.20;99.90;;;;;;4977714;28;20174;-73
2023/04/02 08:49:13;;;;;;;6.78;5.85;;;9.20;99.90;;;;;;5011318;28;20706;-73
2023/04/02 08:51:40;;;;;;;5.72;4.70;;;9.20;99.90;;;;;;5009857;28;20794;-74
2023/04/02 08:54:32;;;;;;;6.30;4.90;;;9.20;99.90;;;;;;5011844;28;20240;-73
2023/04/02 08:57:35;;;;;;;5.07;4.50;;;9.20;99.90;;;;;;5022888;28;20178;-73
2023/04/02 09:00:23;;;;;;;5.30;4.35;;;9.30;99.90;;;;;;5031156;28;20902;-73
2023/04/02 09:02:55;;;;;;;7.70;4.60;;;9.30;99.90;;;;;;5029449;28;20170;-73
2023/04/02 09:05:32;;;;;;;7.80;5.25;;;9.30;99.90;;;;;;5029759;28;20293;-73
2023/04/02 09:08:01;;;;;;;7.78;5.40;;;9.40;99.90;;;;;;5029712;28;20174;-73
2023/04/02 09:10:41;;;;;;;6.47;5.68;;;9.30;99.90;;;;;;5029312;28;20188;-73
2023/04/02 09:13:19;;;;;;;6.35;5.65;;;9.40;99.90;;;;;;5029385;28;20184;-73
2023/04/02 09:15:45;;;;;;;4.75;4.25;;;9.40;99.90;;;;;;5029040;28;20189;-73
2023/04/02 09:18:16;;;;;;;7.17;5.20;;;9.40;99.90;;;;;;5027254;28;20547;-73
2023/04/02 09:20:43;;;;;;;5.70;4.25;;;9.40;99.90;;;;;;5013571;28;21073;-73
2023/04/02 09:23:27;;;;;;;6.10;5.07;;;9.40;99.90;;;;;;4987460;28;20188;-74
2023/04/02 09:25:54;;;;;;;4.78;4.00;;;9.40;99.90;;;;;;5003243;28;20194;-73
2023/04/02 09:28:22;;;;;;;6.70;5.03;;;9.40;99.90;;;;;;4994076;28;20861;-73
2023/04/02 09:31:11;;;;;;;5.25;4.72;;;9.40;99.90;;;;;;4993840;28;20225;-73
2023/04/02 09:33:55;;;;;;;4.30;3.90;;;9.50;99.90;;;;;;4978009;28;20270;-74
2023/04/02 09:36:38;;;;;;;4.47;3.50;;;9.40;99.90;;;;;;4993877;28;20179;-73
2023/04/02 09:39:19;;;;;;;6.43;5.20;;;9.50;99.90;;;;;;4995209;28;20661;-73
2023/04/02 09:41:45;;;;;;;5.85;3.78;;;9.50;99.90;;;;;;4993190;28;20190;-73
2023/04/02 09:44:13;;;;;;;4.40;3.70;;;9.60;99.90;;;;;;4993663;28;20203;-73
2023/04/02 09:47:02;;;;;;;5.72;3.30;;;9.60;99.90;;;;;;4993547;28;20186;-76
2023/04/02 09:49:33;;;;;;;4.50;3.55;;;9.60;99.90;;;;;;4994942;28;20233;-75
2023/04/02 09:52:23;;;;;;;6.18;3.88;;;9.60;99.90;;;;;;5019946;28;20193;-76
2023/04/02 09:55:29;;;;;;;6.40;4.03;;;9.70;99.90;;;;;;5014620;28;20209;-76
2023/04/02 09:58:14;;;;;;;5.13;3.90;;;9.80;99.90;;;;;;4972373;28;20180;-74
2023/04/02 10:00:50;;;;;;;6.90;5.53;;;9.80;99.90;;;;;;5012852;28;20249;-73
2023/04/02 10:03:25;;;;;;;4.63;3.80;;;9.90;99.90;;;;;;5012593;28;20584;-73
2023/04/02 10:06:11;;;;;;;7.30;4.00;;;10.00;99.90;;;;;;5014383;28;20221;-73
2023/04/02 10:08:39;;;;;;;6.93;3.90;;;10.10;99.90;;;;;;5013681;28;20193;-73
2023/04/02 10:11:12;;;;;;;5.30;4.53;;;10.10;99.90;;;;;;5029122;28;20185;-73
2023/04/02 10:13:43;;;;;;;5.00;4.10;;;10.10;99.90;;;;;;5013710;28;20190;-72
2023/04/02 10:16:18;;;;;;;7.85;4.22;;;10.20;99.90;;;;;;5012900;28;20277;-73
2023/04/02 10:18:43;;;;;;;6.40;4.53;;;10.20;99.90;;;;;;4996528;28;20201;-72
2023/04/02 10:21:12;;;;;;;4.40;3.87;;;10.20;99.90;;;;;;5013193;28;20180;-73
2023/04/02 10:23:38;;;;;;;5.57;4.53;;;10.30;99.90;;;;;;5013958;28;20533;-73
2023/04/02 10:26:28;;;;;;;5.27;3.97;;;10.30;99.90;;;;;;5013506;28;20194;-73
2023/04/02 10:29:12;;;;;;;5.40;3.97;;;10.30;99.90;;;;;;5012498;28;20589;-73
2023/04/02 10:32:03;;;;;;;5.15;4.28;;;10.40;99.90;;;;;;5010776;28;20178;-72
2023/04/02 10:34:41;;;;;;;7.30;4.97;;;10.50;99.90;;;;;;5012636;28;20205;-73
2023/04/02 10:37:29;;;;;;;5.90;3.83;;;10.60;99.90;;;;;;5003321;28;20183;-73
2023/04/02 10:40:04;;;;;;;5.65;4.75;;;10.60;99.90;;;;;;5004360;28;20210;-73
2023/04/02 10:42:43;;;;;;;6.88;4.15;;;10.70;99.90;;;;;;5034290;28;20237;-73
2023/04/02 10:45:23;;;;;;;6.45;4.95;;;10.80;99.90;;;;;;5002981;28;20648;-73
2023/04/02 10:48:25;;;;;;;7.68;4.75;;;10.90;99.90;;;;;;5011600;28;20178;-73
2023/04/02 10:50:57;;;;;;;5.80;4.05;;;11.00;99.90;;;;;;4994616;28;20189;-73
2023/04/02 10:53:48;;;;;;;4.72;4.32;;;11.20;99.90;;;;;;5002484;28;20237;-74
2023/04/02 10:56:14;;;;;;;4.32;3.20;;;11.30;99.90;;;;;;4997457;28;20196;-74
2023/04/02 10:58:56;;;;;;;4.75;4.13;;;11.40;99.90;;;;;;5035688;28;20202;-74
2023/04/02 11:01:28;;;;;;;4.75;3.53;;;11.50;99.90;;;;;;5003933;28;20190;-74
2023/04/02 11:04:01;;;;;;;4.55;3.22;;;11.60;99.90;;;;;;5003170;28;20171;-74
2023/04/02 11:06:37;;;;;;;4.00;3.42;;;11.60;99.90;;;;;;5034357;28;20572;-74
2023/04/02 11:09:11;;;;;;;4.32;3.60;;;11.70;99.90;;;;;;5000209;28;20204;-74
2023/04/02 11:11:43;;;;;;;5.65;3.33;;;11.70;99.90;;;;;;5033309;28;20178;-73
2023/04/02 11:14:16;;;;;;;3.15;2.85;;;11.70;99.90;;;;;;4987364;28;20671;-73
2023/04/02 11:16:42;;;;;;;3.53;3.13;;;11.70;99.90;;;;;;5001949;28;20173;-73
2023/04/02 11:19:17;;;;;;;5.05;3.30;;;11.70;99.90;;;;;;5002545;28;20222;-73
2023/04/02 11:21:55;;;;;;;5.75;3.75;;;11.70;99.90;;;;;;5003914;28;20248;-74
2023/04/02 11:24:28;;;;;;;4.40;3.90;;;11.70;99.90;;;;;;5003172;28;20249;-74
2023/04/02 11:27:08;;;;;;;3.90;3.15;;;11.70;99.90;;;;;;5001747;28;20179;-74
2023/04/02 11:29:43;;;;;;;4.03;3.00;;;11.60;99.90;;;;;;5002764;28;20269;-75
2023/04/02 11:32:25;;;;;;;6.07;3.53;;;11.70;99.90;;;;;;5017100;28;20641;-74
2023/04/02 11:34:52;;;;;;;5.22;3.90;;;11.70;99.90;;;;;;5002260;28;20194;-74
2023/04/02 11:37:38;;;;;;;4.55;3.72;;;11.70;99.90;;;;;;5001327;28;20195;-74
2023/04/02 11:40:09;;;;;;;3.42;3.10;;;11.60;99.90;;;;;;5032556;28;20190;-74
2023/04/02 11:42:39;;;;;;;3.90;3.53;;;11.60;99.90;;;;;;5004494;28;20238;-74
2023/04/02 11:45:20;;;;;;;6.25;3.67;;;11.70;99.90;;;;;;5016273;28;20217;-74
2023/04/02 11:48:02;;;;;;;5.10;3.85;;;11.70;99.90;;;;;;5027472;28;20171;-74
2023/04/02 11:50:37;;;;;;;6.20;4.00;;;11.70;99.90;;;;;;5011390;28;20208;-73
2023/04/02 11:53:04;;;;;;;4.85;4.35;;;11.70;99.90;;;;;;5026978;28;20173;-74
2023/04/02 11:55:34;;;;;;;8.93;4.63;;;11.80;99.90;;;;;;5026846;28;20202;-74
2023/04/02 11:58:37;;;;;;;4.88;4.30;;;11.80;99.90;;;;;;5010804;28;20185;-74
2023/04/02 12:01:42;;;;;;;4.88;3.85;;;11.70;99.90;;;;;;5010797;28;20212;-74
2023/04/02 12:04:34;;;;;;;5.13;4.10;;;11.80;99.90;;;;;;5012144;28;20194;-75
2023/04/02 12:07:18;;;;;;;4.95;4.15;;;11.80;99.90;;;;;;5010292;28;20182;-74
2023/04/02 12:09:54;;;;;;;4.65;3.70;;;11.80;99.90;;;;;;5011381;28;20177;-74
2023/04/02 12:12:22;;;;;;;4.43;3.67;;;11.80;99.90;;;;;;4993914;28;20276;-75
2023/04/02 12:14:51;;;;;;;3.90;3.60;;;11.90;99.90;;;;;;5010844;28;20194;-75
2023/04/02 12:17:29;;;;;;;4.25;3.20;;;11.90;99.90;;;;;;5010831;28;20213;-75
2023/04/02 12:20:22;;;;;;;3.17;2.88;;;12.00;99.90;;;;;;5010061;28;20214;-74
2023/04/02 12:22:53;;;;;;;5.55;4.00;;;12.00;99.90;;;;;;4991999;28;20164;-75
2023/04/02 12:25:26;;;;;;;3.70;2.90;;;12.10;99.90;;;;;;4991893;28;20666;-74
2023/04/02 12:28:06;;;;;;;5.20;3.25;;;12.20;99.90;;;;;;4992193;28;20171;-74
2023/04/02 12:30:32;;;;;;;3.63;3.03;;;12.20;99.90;;;;;;4990478;28;20175;-74
2023/04/02 12:33:25;;;;;;;4.40;3.53;;;12.20;99.90;;;;;;4990805;28;20178;-74
2023/04/02 12:35:59;;;;;;;5.20;2.78;;;12.20;99.90;;;;;;4991701;28;20637;-74
2023/04/02 12:38:28;;;;;;;4.00;3.55;;;12.10;99.90;;;;;;4990700;28;20174;-74
2023/04/02 12:40:57;;;;;;;4.22;3.83;;;12.10;99.90;;;;;;5017831;28;20584;-74
2023/04/02 12:43:28;;;;;;;3.13;2.83;;;12.10;99.90;;;;;;5031142;28;20266;-74
2023/04/02 12:45:56;;;;;;;8.52;4.38;;;12.10;99.90;;;;;;5029361;28;20555;-74
2023/04/02 12:48:23;;;;;;;6.50;3.20;;;12.00;99.90;;;;;;5013451;28;20228;-74
2023/04/02 12:50:49;;;;;;;4.30;3.75;;;12.00;99.90;;;;;;5029880;28;20189;-75
2023/04/02 12:53:28;;;;;;;7.47;3.47;;;12.00;99.90;;;;;;5012982;28;20173;-74
2023/04/02 12:55:55;;;;;;;4.93;3.53;;;12.00;99.90;;;;;;5029427;28;20208;-74
2023/04/02 12:58:54;;;;;;;4.43;3.20;;;12.00;99.90;;;;;;5029680;28;20656;-74
2023/04/02 13:01:26;;;;;;;4.47;3.38;;;12.10;99.90;;;;;;5030596;28;20203;-74
2023/04/02 13:04:18;;;;;;;4.72;3.40;;;12.10;99.90;;;;;;5030841;28;20170;-74
2023/04/02 13:06:50;;;;;;;3.92;3.17;;;12.10;99.90;;;;;;5026527;28;20325;-74
2023/04/02 13:09:42;;;;;;;2.63;2.25;;;12.20;99.90;;;;;;5029334;28;20660;-74
2023/04/02 13:12:35;;;;;;;3.78;2.40;;;12.20;99.90;;;;;;5030723;28;20188;-73
2023/04/02 13:15:35;;;;;;;3.58;3.28;;;12.30;99.90;;;;;;5031523;28;20249;-73
2023/04/02 13:18:03;;;;;;;3.17;2.88;;;12.40;99.90;;;;;;5031094;28;20232;-74
2023/04/02 13:20:40;;;;;;;3.97;3.33;;;12.50;99.90;;;;;;5023787;28;20293;-74
2023/04/02 13:23:28;;;;;;;4.30;3.05;;;12.40;99.90;;;;;;5010703;28;20170;-74
2023/04/02 13:26:12;;;;;;;3.28;2.53;;;12.40;99.90;;;;;;4993403;28;20194;-74
2023/04/02 13:28:38;;;;;;;4.97;3.05;;;12.40;99.90;;;;;;5010120;28;20167;-74
2023/04/02 13:31:04;;;;;;;6.73;3.80;;;12.40;99.90;;;;;;4992652;28;20646;-73
2023/04/02 13:33:32;;;;;;;5.27;4.07;;;12.40;99.90;;;;;;4993401;28;20664;-73
2023/04/02 13:35:58;;;;;;;5.38;3.38;;;12.50;99.90;;;;;;5018090;28;20715;-74
2023/04/02 13:38:24;;;;;;;6.63;3.30;;;12.40;99.90;;;;;;5021036;28;20352;-74
2023/04/02 13:40:50;;;;;;;5.23;2.90;;;12.40;99.90;;;;;;5028807;28;20169;-74